sensor_id;sensor_type;location;lat;lon;timestamp;pressure;altitude;pressure_sealevel;temperature
75811;BMP280;64449;50.016;19.954;2023-03-01T00:04:27;99925.80;;;1.42
75811;BMP280;64449;50.016;19.954;2023-03-01T00:06:53;99927.05;;;1.41
75811;BMP280;64449;50.016;19.954;2023-03-01T01:00:11;99911.06;;;2.97
75811;BMP280;64449;50.016;19.954;2023-03-01T01:02:37;99907.34;;;2.80
75811;BMP280;64449;50.016;19.954;2023-03-01T01:05:03;99901.70;;;2.60
75811;BMP280;64449;50.016;19.954;2023-03-01T01:07:29;99902.42;;;2.42
75811;BMP280;64449;50.016;19.954;2023-03-01T01:09:54;99899.69;;;2.26
75811;BMP280;64449;50.016;19.954;2023-03-01T01:12:20;99887.55;;;2.08
75811;BMP280;64449;50.016;19.954;2023-03-01T01:14:45;99886.71;;;1.92
75811;BMP280;64449;50.016;19.954;2023-03-01T01:17:11;99882.82;;;1.78
75811;BMP280;64449;50.016;19.954;2023-03-01T01:19:37;99883.46;;;1.64
75811;BMP280;64449;50.016;19.954;2023-03-01T01:22:02;99884.70;;;1.53
75811;BMP280;64449;50.016;19.954;2023-03-01T01:24:28;99886.45;;;1.41
75811;BMP280;64449;50.016;19.954;2023-03-01T01:26:54;99883.57;;;1.34
75811;BMP280;64449;50.016;19.954;2023-03-01T01:29:19;99882.46;;;1.26
75811;BMP280;64449;50.016;19.954;2023-03-01T01:31:44;99877.54;;;1.19
75811;BMP280;64449;50.016;19.954;2023-03-01T01:34:16;99871.10;;;1.13
75811;BMP280;64449;50.016;19.954;2023-03-01T01:36:42;99870.08;;;1.06
75811;BMP280;64449;50.016;19.954;2023-03-01T01:39:08;99876.08;;;1.00
75811;BMP280;64449;50.016;19.954;2023-03-01T01:41:39;99875.73;;;0.92
75811;BMP280;64449;50.016;19.954;2023-03-01T01:44:26;99875.66;;;0.84
75811;BMP280;64449;50.016;19.954;2023-03-01T01:47:19;99870.90;;;0.76
75811;BMP280;64449;50.016;19.954;2023-03-01T01:49:51;99872.17;;;0.69
75811;BMP280;64449;50.016;19.954;2023-03-01T01:52:29;99865.77;;;0.63
75811;BMP280;64449;50.016;19.954;2023-03-01T01:55:07;99862.20;;;0.56
75811;BMP280;64449;50.016;19.954;2023-03-01T01:57:37;99857.69;;;0.50
75811;BMP280;64449;50.016;19.954;2023-03-01T02:00:13;99864.71;;;0.45
75811;BMP280;64449;50.016;19.954;2023-03-01T02:02:40;99871.48;;;0.41
75811;BMP280;64449;50.016;19.954;2023-03-01T02:07:59;99862.18;;;0.33
75811;BMP280;64449;50.016;19.954;2023-03-01T02:10:26;99864.86;;;0.30
75811;BMP280;64449;50.016;19.954;2023-03-01T02:12:54;99865.84;;;0.25
75811;BMP280;64449;50.016;19.954;2023-03-01T02:15:22;99860.30;;;0.18
75811;BMP280;64449;50.016;19.954;2023-03-01T02:17:48;99859.34;;;0.13
75811;BMP280;64449;50.016;19.954;2023-03-01T02:22:55;99859.31;;;0.04
75811;BMP280;64449;50.016;19.954;2023-03-01T02:30:19;99861.48;;;-0.07
75811;BMP280;64449;50.016;19.954;2023-03-01T02:32:45;99865.61;;;-0.10
75811;BMP280;64449;50.016;19.954;2023-03-01T02:35:13;99869.34;;;-0.11
75811;BMP280;64449;50.016;19.954;2023-03-01T02:37:41;99871.57;;;-0.13
75811;BMP280;64449;50.016;19.954;2023-03-01T02:40:11;99878.52;;;-0.15
75811;BMP280;64449;50.016;19.954;2023-03-01T02:42:45;99881.25;;;-0.17
75811;BMP280;64449;50.016;19.954;2023-03-01T02:45:12;99877.98;;;-0.18
75811;BMP280;64449;50.016;19.954;2023-03-01T02:47:37;99877.04;;;-0.21
75811;BMP280;64449;50.016;19.954;2023-03-01T02:55:29;99873.41;;;-0.27
75811;BMP280;64449;50.016;19.954;2023-03-01T02:57:55;99870.80;;;-0.30
75811;BMP280;64449;50.016;19.954;2023-03-01T03:00:24;99875.29;;;-0.32
75811;BMP280;64449;50.016;19.954;2023-03-01T03:02:52;99873.98;;;-0.33
75811;BMP280;64449;50.016;19.954;2023-03-01T03:05:30;99872.98;;;-0.35
75811;BMP280;64449;50.016;19.954;2023-03-01T03:07:57;99869.51;;;-0.35
75811;BMP280;64449;50.016;19.954;2023-03-01T03:10:35;99866.73;;;-0.37
75811;BMP280;64449;50.016;19.954;2023-03-01T03:13:09;99865.61;;;-0.39
75811;BMP280;64449;50.016;19.954;2023-03-01T03:15:35;99862.66;;;-0.40
75811;BMP280;64449;50.016;19.954;2023-03-01T03:18:02;99866.09;;;-0.42
75811;BMP280;64449;50.016;19.954;2023-03-01T03:20:28;99860.81;;;-0.42
75811;BMP280;64449;50.016;19.954;2023-03-01T03:22:55;99859.59;;;-0.44
75811;BMP280;64449;50.016;19.954;2023-03-01T03:25:22;99858.60;;;-0.46
75811;BMP280;64449;50.016;19.954;2023-03-01T03:27:49;99859.83;;;-0.49
75811;BMP280;64449;50.016;19.954;2023-03-01T03:30:23;99853.54;;;-0.51
75811;BMP280;64449;50.016;19.954;2023-03-01T03:32:50;99854.95;;;-0.53
75811;BMP280;64449;50.016;19.954;2023-03-01T03:35:38;99859.52;;;-0.56
75811;BMP280;64449;50.016;19.954;2023-03-01T03:38:06;99862.26;;;-0.59
75811;BMP280;64449;50.016;19.954;2023-03-01T03:40:39;99859.70;;;-0.63
75811;BMP280;64449;50.016;19.954;2023-03-01T03:43:11;99859.05;;;-0.66
75811;BMP280;64449;50.016;19.954;2023-03-01T03:45:37;99854.73;;;-0.69
75811;BMP280;64449;50.016;19.954;2023-03-01T03:48:04;99852.51;;;-0.70
75811;BMP280;64449;50.016;19.954;2023-03-01T03:50:30;99850.14;;;-0.74
75811;BMP280;64449;50.016;19.954;2023-03-01T03:52:56;99846.17;;;-0.78
75811;BMP280;64449;50.016;19.954;2023-03-01T03:55:21;99851.80;;;-0.81
75811;BMP280;64449;50.016;19.954;2023-03-01T03:57:47;99854.33;;;-0.84
75811;BMP280;64449;50.016;19.954;2023-03-01T04:00:21;99854.53;;;-0.88
75811;BMP280;64449;50.016;19.954;2023-03-01T04:02:50;99856.59;;;-0.92
75811;BMP280;64449;50.016;19.954;2023-03-01T04:05:17;99856.47;;;-0.94
75811;BMP280;64449;50.016;19.954;2023-03-01T04:07:43;99861.98;;;-0.95
75811;BMP280;64449;50.016;19.954;2023-03-01T04:10:14;99862.59;;;-0.96
75811;BMP280;64449;50.016;19.954;2023-03-01T04:12:40;99858.73;;;-0.94
75811;BMP280;64449;50.016;19.954;2023-03-01T04:15:09;99859.21;;;-0.93
75811;BMP280;64449;50.016;19.954;2023-03-01T04:17:46;99856.93;;;-0.93
75811;BMP280;64449;50.016;19.954;2023-03-01T04:20:14;99855.73;;;-0.93
75811;BMP280;64449;50.016;19.954;2023-03-01T04:22:43;99857.42;;;-0.92
75811;BMP280;64449;50.016;19.954;2023-03-01T04:25:11;99855.02;;;-0.91
75811;BMP280;64449;50.016;19.954;2023-03-01T04:27:39;99858.98;;;-0.91
75811;BMP280;64449;50.016;19.954;2023-03-01T04:30:06;99858.65;;;-0.91
75811;BMP280;64449;50.016;19.954;2023-03-01T04:32:32;99857.98;;;-0.90
75811;BMP280;64449;50.016;19.954;2023-03-01T04:34:57;99859.45;;;-0.89
75811;BMP280;64449;50.016;19.954;2023-03-01T04:37:23;99860.80;;;-0.89
75811;BMP280;64449;50.016;19.954;2023-03-01T04:39:49;99860.86;;;-0.87
75811;BMP280;64449;50.016;19.954;2023-03-01T04:42:15;99858.44;;;-0.86
75811;BMP280;64449;50.016;19.954;2023-03-01T04:44:42;99857.88;;;-0.86
75811;BMP280;64449;50.016;19.954;2023-03-01T04:47:07;99858.23;;;-0.87
75811;BMP280;64449;50.016;19.954;2023-03-01T04:49:33;99856.14;;;-0.87
75811;BMP280;64449;50.016;19.954;2023-03-01T04:51:58;99851.55;;;-0.87
75811;BMP280;64449;50.016;19.954;2023-03-01T04:54:30;99851.96;;;-0.88
75811;BMP280;64449;50.016;19.954;2023-03-01T04:56:56;99849.51;;;-0.88
75811;BMP280;64449;50.016;19.954;2023-03-01T04:59:21;99846.73;;;-0.89
75811;BMP280;64449;50.016;19.954;2023-03-01T05:01:53;99849.17;;;-0.92
75811;BMP280;64449;50.016;19.954;2023-03-01T05:04:24;99843.23;;;-0.94
75811;BMP280;64449;50.016;19.954;2023-03-01T05:06:50;99844.33;;;-0.95
75811;BMP280;64449;50.016;19.954;2023-03-01T05:09:15;99838.33;;;-0.99
75811;BMP280;64449;50.016;19.954;2023-03-01T05:11:41;99840.95;;;-1.01
75811;BMP280;64449;50.016;19.954;2023-03-01T05:14:08;99840.13;;;-1.05
75811;BMP280;64449;50.016;19.954;2023-03-01T05:16:34;99838.88;;;-1.08
75811;BMP280;64449;50.016;19.954;2023-03-01T05:19:01;99831.79;;;-1.12
75811;BMP280;64449;50.016;19.954;2023-03-01T05:21:37;99835.98;;;-1.15
75811;BMP280;64449;50.016;19.954;2023-03-01T05:24:22;99831.08;;;-1.17
75811;BMP280;64449;50.016;19.954;2023-03-01T05:26:48;99825.76;;;-1.20
75811;BMP280;64449;50.016;19.954;2023-03-01T05:29:13;99831.11;;;-1.20
75811;BMP280;64449;50.016;19.954;2023-03-01T05:31:39;99831.01;;;-1.20
75811;BMP280;64449;50.016;19.954;2023-03-01T05:34:04;99831.13;;;-1.19
75811;BMP280;64449;50.016;19.954;2023-03-01T05:36:29;99830.73;;;-1.21
75811;BMP280;64449;50.016;19.954;2023-03-01T05:38:55;99830.34;;;-1.22
75811;BMP280;64449;50.016;19.954;2023-03-01T05:41:20;99835.27;;;-1.23
75811;BMP280;64449;50.016;19.954;2023-03-01T05:43:46;99845.36;;;-1.23
75811;BMP280;64449;50.016;19.954;2023-03-01T05:46:11;99851.51;;;-1.24
75811;BMP280;64449;50.016;19.954;2023-03-01T05:48:38;99856.36;;;-1.25
75811;BMP280;64449;50.016;19.954;2023-03-01T05:51:04;99861.08;;;-1.27
75811;BMP280;64449;50.016;19.954;2023-03-01T05:53:29;99858.93;;;-1.27
75811;BMP280;64449;50.016;19.954;2023-03-01T05:55:54;99861.39;;;-1.28
75811;BMP280;64449;50.016;19.954;2023-03-01T05:58:20;99855.92;;;-1.27
75811;BMP280;64449;50.016;19.954;2023-03-01T06:00:47;99859.46;;;-1.26
75811;BMP280;64449;50.016;19.954;2023-03-01T06:03:15;99859.77;;;-1.24
75811;BMP280;64449;50.016;19.954;2023-03-01T06:05:41;99855.63;;;-1.23
75811;BMP280;64449;50.016;19.954;2023-03-01T06:08:07;99854.27;;;-1.21
75811;BMP280;64449;50.016;19.954;2023-03-01T06:10:32;99850.46;;;-1.17
75811;BMP280;64449;50.016;19.954;2023-03-01T06:12:58;99848.59;;;-1.12
75811;BMP280;64449;50.016;19.954;2023-03-01T06:15:24;99853.73;;;-1.07
75811;BMP280;64449;50.016;19.954;2023-03-01T06:17:49;99851.45;;;-1.02
75811;BMP280;64449;50.016;19.954;2023-03-01T06:20:20;99843.09;;;-0.98
75811;BMP280;64449;50.016;19.954;2023-03-01T06:22:46;99839.87;;;-0.93
75811;BMP280;64449;50.016;19.954;2023-03-01T06:25:14;99844.40;;;-0.87
75811;BMP280;64449;50.016;19.954;2023-03-01T06:27:41;99848.55;;;-0.81
75811;BMP280;64449;50.016;19.954;2023-03-01T06:30:09;99850.14;;;-0.74
75811;BMP280;64449;50.016;19.954;2023-03-01T06:32:36;99854.86;;;-0.67
75811;BMP280;64449;50.016;19.954;2023-03-01T06:35:03;99857.34;;;-0.61
75811;BMP280;64449;50.016;19.954;2023-03-01T06:37:29;99859.85;;;-0.53
75811;BMP280;64449;50.016;19.954;2023-03-01T06:39:54;99855.68;;;-0.46
75811;BMP280;64449;50.016;19.954;2023-03-01T06:42:20;99855.32;;;-0.38
75811;BMP280;64449;50.016;19.954;2023-03-01T06:44:45;99853.35;;;-0.29
75811;BMP280;64449;50.016;19.954;2023-03-01T06:47:11;99851.73;;;-0.21
75811;BMP280;64449;50.016;19.954;2023-03-01T06:49:36;99856.55;;;-0.05
75811;BMP280;64449;50.016;19.954;2023-03-01T06:52:02;99857.14;;;0.23
75811;BMP280;64449;50.016;19.954;2023-03-01T06:54:28;99854.34;;;0.50
75811;BMP280;64449;50.016;19.954;2023-03-01T06:56:53;99850.41;;;0.92
75811;BMP280;64449;50.016;19.954;2023-03-01T06:59:19;99859.27;;;1.72
75811;BMP280;64449;50.016;19.954;2023-03-01T07:01:44;99863.77;;;2.68
75811;BMP280;64449;50.016;19.954;2023-03-01T07:04:11;99859.84;;;3.34
75811;BMP280;64449;50.016;19.954;2023-03-01T07:06:36;99860.90;;;3.77
75811;BMP280;64449;50.016;19.954;2023-03-01T07:09:02;99861.31;;;4.25
75811;BMP280;64449;50.016;19.954;2023-03-01T07:11:27;99857.23;;;4.53
75811;BMP280;64449;50.016;19.954;2023-03-01T07:13:52;99851.26;;;5.04
75811;BMP280;64449;50.016;19.954;2023-03-01T07:16:18;99847.27;;;5.30
75811;BMP280;64449;50.016;19.954;2023-03-01T07:18:46;99842.14;;;5.48
75811;BMP280;64449;50.016;19.954;2023-03-01T07:21:13;99838.56;;;5.45
75811;BMP280;64449;50.016;19.954;2023-03-01T07:23:39;99830.94;;;5.36
75811;BMP280;64449;50.016;19.954;2023-03-01T07:26:05;99822.96;;;5.28
75811;BMP280;64449;50.016;19.954;2023-03-01T07:28:30;99817.61;;;5.26
75811;BMP280;64449;50.016;19.954;2023-03-01T07:31:00;99806.27;;;5.40
75811;BMP280;64449;50.016;19.954;2023-03-01T07:33:25;99806.55;;;5.59
75811;BMP280;64449;50.016;19.954;2023-03-01T07:35:55;99801.30;;;5.76
75811;BMP280;64449;50.016;19.954;2023-03-01T07:38:20;99795.08;;;6.17
75811;BMP280;64449;50.016;19.954;2023-03-01T07:40:46;99792.46;;;6.64
75811;BMP280;64449;50.016;19.954;2023-03-01T07:43:11;99787.81;;;6.99
75811;BMP280;64449;50.016;19.954;2023-03-01T07:45:36;99794.95;;;7.33
75811;BMP280;64449;50.016;19.954;2023-03-01T07:48:02;99800.42;;;7.85
75811;BMP280;64449;50.016;19.954;2023-03-01T07:50:27;99801.96;;;8.30
75811;BMP280;64449;50.016;19.954;2023-03-01T07:52:52;99802.18;;;8.72
75811;BMP280;64449;50.016;19.954;2023-03-01T07:55:18;99798.62;;;8.86
75811;BMP280;64449;50.016;19.954;2023-03-01T07:57:45;99807.00;;;8.98
75811;BMP280;64449;50.016;19.954;2023-03-01T08:00:11;99815.41;;;9.22
75811;BMP280;64449;50.016;19.954;2023-03-01T08:02:37;99822.34;;;9.48
75811;BMP280;64449;50.016;19.954;2023-03-01T08:05:03;99821.52;;;9.73
75811;BMP280;64449;50.016;19.954;2023-03-01T08:07:32;99824.16;;;10.29
75811;BMP280;64449;50.016;19.954;2023-03-01T08:10:00;99825.01;;;10.65
75811;BMP280;64449;50.016;19.954;2023-03-01T08:12:26;99822.21;;;10.81
75811;BMP280;64449;50.016;19.954;2023-03-01T08:14:53;99815.30;;;11.10
75811;BMP280;64449;50.016;19.954;2023-03-01T08:17:19;99815.09;;;11.47
75811;BMP280;64449;50.016;19.954;2023-03-01T08:19:44;99810.80;;;11.88
75811;BMP280;64449;50.016;19.954;2023-03-01T08:22:10;99812.44;;;12.19
75811;BMP280;64449;50.016;19.954;2023-03-01T08:24:35;99807.38;;;12.50
75811;BMP280;64449;50.016;19.954;2023-03-01T08:27:01;99800.05;;;12.72
75811;BMP280;64449;50.016;19.954;2023-03-01T08:29:29;99797.77;;;12.96
75811;BMP280;64449;50.016;19.954;2023-03-01T08:31:55;99795.79;;;13.16
75811;BMP280;64449;50.016;19.954;2023-03-01T08:34:23;99795.02;;;13.33
75811;BMP280;64449;50.016;19.954;2023-03-01T08:36:57;99789.19;;;13.66
75811;BMP280;64449;50.016;19.954;2023-03-01T08:39:22;99785.11;;;14.04
75811;BMP280;64449;50.016;19.954;2023-03-01T08:41:48;99781.54;;;14.22
75811;BMP280;64449;50.016;19.954;2023-03-01T08:44:14;99774.94;;;14.53
75811;BMP280;64449;50.016;19.954;2023-03-01T08:46:42;99774.88;;;14.97
75811;BMP280;64449;50.016;19.954;2023-03-01T08:49:10;99774.58;;;15.45
75811;BMP280;64449;50.016;19.954;2023-03-01T08:51:36;99771.13;;;15.95
75811;BMP280;64449;50.016;19.954;2023-03-01T08:54:13;99763.17;;;16.27
75811;BMP280;64449;50.016;19.954;2023-03-01T08:56:40;99760.29;;;16.67
75811;BMP280;64449;50.016;19.954;2023-03-01T08:59:05;99762.52;;;16.96
75811;BMP280;64449;50.016;19.954;2023-03-01T09:01:31;99764.35;;;17.34
75811;BMP280;64449;50.016;19.954;2023-03-01T09:03:56;99766.48;;;17.72
75811;BMP280;64449;50.016;19.954;2023-03-01T09:06:22;99773.23;;;18.03
75811;BMP280;64449;50.016;19.954;2023-03-01T09:08:49;99774.85;;;18.37
75811;BMP280;64449;50.016;19.954;2023-03-01T09:11:17;99773.40;;;18.55
75811;BMP280;64449;50.016;19.954;2023-03-01T09:13:44;99768.11;;;18.75
75811;BMP280;64449;50.016;19.954;2023-03-01T09:16:11;99766.41;;;18.81
75811;BMP280;64449;50.016;19.954;2023-03-01T09:18:37;99770.14;;;19.02
75811;BMP280;64449;50.016;19.954;2023-03-01T09:23:40;99764.84;;;19.50
75811;BMP280;64449;50.016;19.954;2023-03-01T09:26:08;99762.03;;;19.66
75811;BMP280;64449;50.016;19.954;2023-03-01T09:28:35;99760.35;;;19.89
75811;BMP280;64449;50.016;19.954;2023-03-01T09:31:01;99761.67;;;20.19
75811;BMP280;64449;50.016;19.954;2023-03-01T09:33:28;99761.06;;;20.36
75811;BMP280;64449;50.016;19.954;2023-03-01T09:35:58;99756.91;;;20.60
75811;BMP280;64449;50.016;19.954;2023-03-01T09:38:24;99759.27;;;20.79
75811;BMP280;64449;50.016;19.954;2023-03-01T09:40:49;99755.50;;;20.86
75811;BMP280;64449;50.016;19.954;2023-03-01T09:43:37;99753.42;;;20.82
75811;BMP280;64449;50.016;19.954;2023-03-01T09:46:09;99751.17;;;20.90
75811;BMP280;64449;50.016;19.954;2023-03-01T09:49:04;99751.80;;;21.08
75811;BMP280;64449;50.016;19.954;2023-03-01T09:51:33;99748.80;;;21.20
75811;BMP280;64449;50.016;19.954;2023-03-01T09:54:04;99749.28;;;21.31
75811;BMP280;64449;50.016;19.954;2023-03-01T09:56:40;99747.16;;;21.55
75811;BMP280;64449;50.016;19.954;2023-03-01T10:02:07;99747.63;;;22.49
75811;BMP280;64449;50.016;19.954;2023-03-01T10:04:48;99745.02;;;22.99
75811;BMP280;64449;50.016;19.954;2023-03-01T10:09:54;99741.73;;;23.36
75811;BMP280;64449;50.016;19.954;2023-03-01T10:12:23;99742.33;;;23.50
75811;BMP280;64449;50.016;19.954;2023-03-01T10:19:59;99740.09;;;24.28
75811;BMP280;64449;50.016;19.954;2023-03-01T10:22:36;99740.21;;;24.43
75811;BMP280;64449;50.016;19.954;2023-03-01T10:25:03;99736.98;;;24.71
75811;BMP280;64449;50.016;19.954;2023-03-01T10:27:51;99731.93;;;24.90
75811;BMP280;64449;50.016;19.954;2023-03-01T10:30:25;99726.86;;;25.19
75811;BMP280;64449;50.016;19.954;2023-03-01T10:32:56;99719.78;;;25.49
75811;BMP280;64449;50.016;19.954;2023-03-01T10:35:28;99717.00;;;25.73
75811;BMP280;64449;50.016;19.954;2023-03-01T10:38:04;99713.83;;;26.01
75811;BMP280;64449;50.016;19.954;2023-03-01T10:40:32;99712.88;;;26.10
75811;BMP280;64449;50.016;19.954;2023-03-01T10:43:00;99716.56;;;26.20
75811;BMP280;64449;50.016;19.954;2023-03-01T10:51:04;99718.14;;;26.36
75811;BMP280;64449;50.016;19.954;2023-03-01T10:53:36;99714.67;;;26.42
75811;BMP280;64449;50.016;19.954;2023-03-01T10:56:10;99714.77;;;26.41
75811;BMP280;64449;50.016;19.954;2023-03-01T10:58:40;99714.45;;;26.46
75811;BMP280;64449;50.016;19.954;2023-03-01T11:03:41;99709.41;;;26.27
75811;BMP280;64449;50.016;19.954;2023-03-01T11:08:46;99702.54;;;26.00
75811;BMP280;64449;50.016;19.954;2023-03-01T11:11:19;99699.69;;;25.86
75811;BMP280;64449;50.016;19.954;2023-03-01T11:13:50;99695.89;;;25.98
75811;BMP280;64449;50.016;19.954;2023-03-01T11:16:23;99693.41;;;26.11
75811;BMP280;64449;50.016;19.954;2023-03-01T11:19:01;99690.71;;;26.20
75811;BMP280;64449;50.016;19.954;2023-03-01T11:21:31;99686.36;;;26.27
75811;BMP280;64449;50.016;19.954;2023-03-01T11:24:01;99685.13;;;26.28
75811;BMP280;64449;50.016;19.954;2023-03-01T11:26:28;99684.61;;;26.21
75811;BMP280;64449;50.016;19.954;2023-03-01T11:29:05;99683.16;;;26.13
75811;BMP280;64449;50.016;19.954;2023-03-01T11:31:32;99685.61;;;26.10
75811;BMP280;64449;50.016;19.954;2023-03-01T11:36:44;99672.51;;;25.94
75811;BMP280;64449;50.016;19.954;2023-03-01T11:39:32;99671.95;;;25.87
75811;BMP280;64449;50.016;19.954;2023-03-01T11:42:09;99669.64;;;25.76
75811;BMP280;64449;50.016;19.954;2023-03-01T11:44:38;99669.36;;;25.59
75811;BMP280;64449;50.016;19.954;2023-03-01T11:52:52;99655.41;;;25.30
75811;BMP280;64449;50.016;19.954;2023-03-01T11:58:39;99658.36;;;24.88
75811;BMP280;64449;50.016;19.954;2023-03-01T12:01:08;99656.60;;;24.73
75811;BMP280;64449;50.016;19.954;2023-03-01T12:06:57;99650.23;;;24.79
75811;BMP280;64449;50.016;19.954;2023-03-01T12:23:28;99630.63;;;24.71
75811;BMP280;64449;50.016;19.954;2023-03-01T12:29:18;99626.70;;;24.81
75811;BMP280;64449;50.016;19.954;2023-03-01T12:31:57;99623.77;;;24.78
75811;BMP280;64449;50.016;19.954;2023-03-01T12:37:13;99625.40;;;24.56
75811;BMP280;64449;50.016;19.954;2023-03-01T12:51:05;99601.70;;;24.03
75811;BMP280;64449;50.016;19.954;2023-03-01T12:53:34;99595.41;;;23.88
75811;BMP280;64449;50.016;19.954;2023-03-01T12:56:05;99598.39;;;23.77
75811;BMP280;64449;50.016;19.954;2023-03-01T13:09:48;99595.89;;;22.76
75811;BMP280;64449;50.016;19.954;2023-03-01T13:15:35;99593.88;;;22.25
75811;BMP280;64449;50.016;19.954;2023-03-01T13:28:46;99589.96;;;20.87
75811;BMP280;64449;50.016;19.954;2023-03-01T13:36:46;99580.40;;;20.14
75811;BMP280;64449;50.016;19.954;2023-03-01T13:41:54;99583.58;;;19.43
75811;BMP280;64449;50.016;19.954;2023-03-01T13:46:51;99581.04;;;18.93
75811;BMP280;64449;50.016;19.954;2023-03-01T13:49:23;99576.73;;;18.72
75811;BMP280;64449;50.016;19.954;2023-03-01T13:51:50;99572.34;;;18.49
75811;BMP280;64449;50.016;19.954;2023-03-01T13:54:24;99564.98;;;18.30
75811;BMP280;64449;50.016;19.954;2023-03-01T13:56:50;99563.17;;;18.03
75811;BMP280;64449;50.016;19.954;2023-03-01T13:59:20;99560.42;;;17.76
75811;BMP280;64449;50.016;19.954;2023-03-01T14:01:56;99556.42;;;17.47
75811;BMP280;64449;50.016;19.954;2023-03-01T14:04:28;99553.99;;;17.29
75811;BMP280;64449;50.016;19.954;2023-03-01T14:09:41;99548.29;;;16.88
75811;BMP280;64449;50.016;19.954;2023-03-01T14:14:48;99541.48;;;16.57
75811;BMP280;64449;50.016;19.954;2023-03-01T14:20:08;99543.76;;;16.29
75811;BMP280;64449;50.016;19.954;2023-03-01T14:22:35;99541.17;;;16.19
75811;BMP280;64449;50.016;19.954;2023-03-01T14:25:05;99535.86;;;16.08
75811;BMP280;64449;50.016;19.954;2023-03-01T14:27:40;99533.34;;;15.98
75811;BMP280;64449;50.016;19.954;2023-03-01T14:30:37;99531.97;;;15.85
75811;BMP280;64449;50.016;19.954;2023-03-01T14:33:16;99529.52;;;15.66
75811;BMP280;64449;50.016;19.954;2023-03-01T14:35:52;99532.64;;;15.45
75811;BMP280;64449;50.016;19.954;2023-03-01T14:38:38;99537.24;;;15.22
75811;BMP280;64449;50.016;19.954;2023-03-01T14:41:25;99540.71;;;15.02
75811;BMP280;64449;50.016;19.954;2023-03-01T14:44:05;99542.23;;;14.80
75811;BMP280;64449;50.016;19.954;2023-03-01T14:46:37;99544.56;;;14.57
75811;BMP280;64449;50.016;19.954;2023-03-01T14:49:09;99539.55;;;14.39
75811;BMP280;64449;50.016;19.954;2023-03-01T14:51:40;99538.00;;;14.26
75811;BMP280;64449;50.016;19.954;2023-03-01T14:54:20;99537.38;;;14.14
75811;BMP280;64449;50.016;19.954;2023-03-01T14:56:47;99543.06;;;14.01
75811;BMP280;64449;50.016;19.954;2023-03-01T14:59:12;99539.23;;;13.90
75811;BMP280;64449;50.016;19.954;2023-03-01T15:01:40;99538.91;;;13.81
75811;BMP280;64449;50.016;19.954;2023-03-01T15:04:10;99538.27;;;13.74
75811;BMP280;64449;50.016;19.954;2023-03-01T15:06:37;99536.58;;;13.66
75811;BMP280;64449;50.016;19.954;2023-03-01T15:09:03;99534.09;;;13.54
75811;BMP280;64449;50.016;19.954;2023-03-01T15:11:30;99537.60;;;13.42
75811;BMP280;64449;50.016;19.954;2023-03-01T15:13:56;99536.69;;;13.32
75811;BMP280;64449;50.016;19.954;2023-03-01T15:16:26;99531.71;;;13.20
75811;BMP280;64449;50.016;19.954;2023-03-01T15:19:05;99532.13;;;13.04
75811;BMP280;64449;50.016;19.954;2023-03-01T15:21:33;99533.45;;;12.87
75811;BMP280;64449;50.016;19.954;2023-03-01T15:26:52;99540.29;;;12.61
75811;BMP280;64449;50.016;19.954;2023-03-01T15:29:22;99542.89;;;12.48
75811;BMP280;64449;50.016;19.954;2023-03-01T15:32:00;99541.77;;;12.34
75811;BMP280;64449;50.016;19.954;2023-03-01T15:34:29;99534.98;;;12.20
75811;BMP280;64449;50.016;19.954;2023-03-01T15:36:58;99531.59;;;12.07
75811;BMP280;64449;50.016;19.954;2023-03-01T15:39:42;99528.44;;;11.95
75811;BMP280;64449;50.016;19.954;2023-03-01T15:44:35;99531.32;;;11.62
75811;BMP280;64449;50.016;19.954;2023-03-01T15:47:08;99531.89;;;11.50
75811;BMP280;64449;50.016;19.954;2023-03-01T15:49:47;99529.34;;;11.39
75811;BMP280;64449;50.016;19.954;2023-03-01T15:52:27;99530.08;;;11.26
75811;BMP280;64449;50.016;19.954;2023-03-01T15:54:59;99529.19;;;11.14
75811;BMP280;64449;50.016;19.954;2023-03-01T15:57:25;99525.46;;;10.98
75811;BMP280;64449;50.016;19.954;2023-03-01T15:59:51;99524.27;;;10.86
75811;BMP280;64449;50.016;19.954;2023-03-01T16:02:16;99529.30;;;10.75
75811;BMP280;64449;50.016;19.954;2023-03-01T16:04:42;99525.95;;;10.62
75811;BMP280;64449;50.016;19.954;2023-03-01T16:07:10;99531.81;;;10.50
75811;BMP280;64449;50.016;19.954;2023-03-01T16:09:38;99538.95;;;10.36
75811;BMP280;64449;50.016;19.954;2023-03-01T16:12:03;99543.04;;;10.25
75811;BMP280;64449;50.016;19.954;2023-03-01T16:14:29;99540.80;;;10.14
75811;BMP280;64449;50.016;19.954;2023-03-01T16:16:54;99540.61;;;10.02
75811;BMP280;64449;50.016;19.954;2023-03-01T16:19:20;99545.76;;;9.89
75811;BMP280;64449;50.016;19.954;2023-03-01T16:21:45;99548.04;;;9.77
75811;BMP280;64449;50.016;19.954;2023-03-01T16:24:15;99551.13;;;9.64
75811;BMP280;64449;50.016;19.954;2023-03-01T16:26:40;99551.14;;;9.53
75811;BMP280;64449;50.016;19.954;2023-03-01T16:29:07;99549.66;;;9.42
75811;BMP280;64449;50.016;19.954;2023-03-01T16:31:32;99550.20;;;9.33
75811;BMP280;64449;50.016;19.954;2023-03-01T16:33:58;99550.84;;;9.23
75811;BMP280;64449;50.016;19.954;2023-03-01T16:36:26;99556.85;;;9.15
75811;BMP280;64449;50.016;19.954;2023-03-01T16:38:54;99559.98;;;9.05
75811;BMP280;64449;50.016;19.954;2023-03-01T16:41:21;99563.70;;;8.96
75811;BMP280;64449;50.016;19.954;2023-03-01T16:43:47;99561.79;;;8.87
75811;BMP280;64449;50.016;19.954;2023-03-01T16:46:21;99561.05;;;8.78
75811;BMP280;64449;50.016;19.954;2023-03-01T16:48:48;99562.61;;;8.71
75811;BMP280;64449;50.016;19.954;2023-03-01T16:51:13;99563.27;;;8.64
75811;BMP280;64449;50.016;19.954;2023-03-01T16:53:38;99564.45;;;8.56
75811;BMP280;64449;50.016;19.954;2023-03-01T16:56:06;99565.07;;;8.50
75811;BMP280;64449;50.016;19.954;2023-03-01T16:58:33;99562.02;;;8.43
75811;BMP280;64449;50.016;19.954;2023-03-01T17:01:04;99558.90;;;8.36
75811;BMP280;64449;50.016;19.954;2023-03-01T17:03:31;99560.63;;;8.30
75811;BMP280;64449;50.016;19.954;2023-03-01T17:05:56;99560.47;;;8.25
75811;BMP280;64449;50.016;19.954;2023-03-01T17:08:22;99558.47;;;8.18
75811;BMP280;64449;50.016;19.954;2023-03-01T17:10:47;99557.59;;;8.11
75811;BMP280;64449;50.016;19.954;2023-03-01T17:13:13;99557.71;;;8.03
75811;BMP280;64449;50.016;19.954;2023-03-01T17:15:41;99559.08;;;7.94
75811;BMP280;64449;50.016;19.954;2023-03-01T17:18:08;99560.95;;;7.87